Time;durP1;ratioP1;P1;durP2;ratioP2;P2;SDS_P1;SDS_P2;PMS_P1;PMS_P2;Temp;Humidity;BMP_temperature;BMP_pressure;BME280_temperature;BME280_humidity;BME280_pressure;Samples;Min_cycle;Max_cycle;Signal;HPM_P1;HPM_P2
2023/11/23 00:00:20;;;;;;;1.60;1.50;;;;;;;1.07;75.41;100588.16;5037420;28;20048;-76
2023/11/23 00:02:49;;;;;;;2.45;2.25;;;;;;;0.90;75.29;100581.41;5036921;28;20038;-76
2023/11/23 00:05:19;;;;;;;3.05;2.80;;;;;;;0.75;75.38;100575.56;5036338;28;20048;-76
2023/11/23 00:07:49;;;;;;;2.15;2.05;;;;;;;0.71;75.50;100575.31;5037313;28;20049;-76
2023/11/23 00:10:17;;;;;;;3.83;3.40;;;;;;;0.81;76.10;100573.38;5035246;28;20041;-75
2023/11/23 00:12:46;;;;;;;2.50;2.30;;;;;;;0.80;76.35;100571.66;5035066;28;20041;-76
2023/11/23 00:15:16;;;;;;;1.05;1.05;;;;;;;0.78;76.44;100562.31;5034602;28;20515;-74
2023/11/23 00:17:47;;;;;;;0.93;0.93;;;;;;;0.73;75.91;100552.03;5034879;28;20506;-75
2023/11/23 00:20:16;;;;;;;1.67;1.58;;;;;;;0.71;76.96;100545.19;5034536;28;20080;-76
2023/11/23 00:22:44;;;;;;;4.05;3.50;;;;;;;0.75;75.96;100537.88;5034396;28;20046;-76
2023/11/23 00:25:13;;;;;;;0.60;0.60;;;;;;;0.77;76.81;100536.31;5034256;28;20046;-74
2023/11/23 00:27:42;;;;;;;1.88;1.55;;;;;;;0.73;76.38;100531.91;5034297;28;20041;-75
2023/11/23 00:30:13;;;;;;;2.10;1.93;;;;;;;0.75;77.02;100535.38;5034350;28;20104;-76
2023/11/23 00:32:42;;;;;;;2.05;1.50;;;;;;;0.77;76.54;100536.31;5034013;28;20271;-75
2023/11/23 00:35:13;;;;;;;2.20;1.52;;;;;;;0.75;77.04;100532.84;5035194;28;20054;-74
2023/11/23 00:37:44;;;;;;;5.40;2.70;;;;;;;0.79;77.01;100524.72;5035154;28;20072;-76
2023/11/23 00:40:13;;;;;;;1.33;1.23;;;;;;;0.78;76.65;100522.97;5034021;28;20456;-76
2023/11/23 00:42:42;;;;;;;2.53;2.37;;;;;;;0.82;77.38;100529.88;5033013;28;20048;-76
2023/11/23 00:45:14;;;;;;;1.83;1.73;;;;;;;0.83;77.10;100520.69;5033277;28;20325;-76
2023/11/23 00:47:43;;;;;;;1.38;1.27;;;;;;;0.84;76.83;100528.28;5035115;28;20370;-76
2023/11/23 00:50:14;;;;;;;3.83;2.97;;;;;;;0.89;77.25;100529.41;5034072;28;20048;-76
2023/11/23 00:52:43;;;;;;;1.40;1.30;;;;;;;0.93;77.45;100528.78;5034798;28;20076;-76
2023/11/23 00:55:12;;;;;;;1.60;1.50;;;;;;;0.96;77.32;100533.94;5033769;28;20050;-76
2023/11/23 00:57:41;;;;;;;2.22;2.03;;;;;;;0.94;77.51;100530.50;5032772;28;20044;-76
2023/11/23 01:00:12;;;;;;;0.77;0.77;;;;;;;0.98;77.35;100537.44;5032805;28;20076;-75
2023/11/23 01:02:41;;;;;;;0.63;0.63;;;;;;;0.95;77.35;100517.16;5033840;28;20426;-75
2023/11/23 01:05:12;;;;;;;2.15;1.70;;;;;;;0.97;77.19;100520.63;5034117;28;20143;-76
2023/11/23 01:07:43;;;;;;;3.17;2.47;;;;;;;1.05;77.16;100529.41;5033548;28;20056;-75
2023/11/23 01:10:13;;;;;;;1.60;1.50;;;;;;;1.12;77.98;100530.56;5032705;28;20038;-75
2023/11/23 01:16:08;;;;;;;0.98;0.98;;;;;;;1.10;77.30;100533.03;5032350;28;20037;-74
2023/11/23 01:18:52;;;;;;;0.93;0.93;;;;;;;1.10;78.11;100537.19;5032357;28;20041;-73
2023/11/23 01:24:46;;;;;;;10.98;1.88;;;;;;;1.06;78.15;100541.19;5032114;28;20068;-75
2023/11/23 01:27:14;;;;;;;1.60;1.50;;;;;;;1.11;77.67;100539.75;5033459;28;20057;-74
2023/11/23 01:30:20;;;;;;;1.90;1.43;;;;;;;1.11;78.46;100533.88;5033157;28;20095;-74
2023/11/23 01:32:49;;;;;;;1.02;0.95;;;;;;;1.12;78.36;100533.97;5033480;28;20290;-75
2023/11/23 01:35:33;;;;;;;2.35;2.15;;;;;;;1.19;77.88;100532.59;5033606;28;20045;-75
2023/11/23 01:38:02;;;;;;;0.82;0.82;;;;;;;1.22;78.07;100523.56;5032310;28;20480;-74
2023/11/23 01:40:33;;;;;;;1.88;1.77;;;;;;;1.08;78.74;100508.59;5033341;28;20128;-73
2023/11/23 01:43:46;;;;;;;0.98;0.98;;;;;;;1.08;79.07;100503.56;5021981;28;20033;-73
2023/11/23 01:46:38;;;;;;;0.60;0.60;;;;;;;1.13;79.59;100508.03;5036959;28;20504;-73
2023/11/23 01:49:08;;;;;;;3.70;2.47;;;;;;;1.18;78.64;100509.13;5037109;28;20491;-73
2023/11/23 01:51:37;;;;;;;2.08;1.98;;;;;;;1.13;79.74;100505.50;5036893;28;20096;-73
2023/11/23 01:54:07;;;;;;;3.65;2.55;;;;;;;1.06;79.38;100485.88;5036559;28;20049;-73
2023/11/23 01:56:37;;;;;;;1.70;1.60;;;;;;;1.14;79.59;100484.63;5037314;28;20071;-73
2023/11/23 01:59:06;;;;;;;2.97;2.72;;;;;;;1.24;79.19;100491.84;5035713;28;20096;-73
2023/11/23 02:01:35;;;;;;;3.13;2.87;;;;;;;1.31;79.90;100491.34;5035726;28;20034;-73
2023/11/23 02:04:05;;;;;;;2.08;1.98;;;;;;;1.28;80.03;100457.63;5035633;28;20684;-73
2023/11/23 02:06:33;;;;;;;1.77;1.67;;;;;;;1.29;79.67;100470.31;5036518;28;20054;-73
2023/11/23 02:09:14;;;;;;;1.77;1.67;;;;;;;1.31;79.71;100458.66;5036464;28;20053;-73
2023/11/23 02:11:44;;;;;;;1.60;1.50;;;;;;;1.33;79.48;100467.13;5036526;28;20103;-73
2023/11/23 02:14:14;;;;;;;2.00;1.83;;;;;;;1.31;79.21;100463.69;5036442;28;20091;-73
2023/11/23 02:16:44;;;;;;;2.50;2.17;;;;;;;1.21;79.38;100466.53;5036340;28;20046;-73
2023/11/23 02:19:13;;;;;;;1.85;0.98;;;;;;;1.15;79.51;100461.19;5035369;28;20060;-73
2023/11/23 02:21:43;;;;;;;1.00;1.00;;;;;;;1.22;80.67;100462.38;5036334;28;20045;-73
2023/11/23 02:24:14;;;;;;;1.42;1.33;;;;;;;1.25;80.76;100465.88;5036508;28;20152;-73
2023/11/23 02:26:43;;;;;;;1.52;1.42;;;;;;;1.23;80.37;100464.97;5051843;28;20053;-73
2023/11/23 02:29:11;;;;;;;2.17;1.58;;;;;;;1.33;79.93;100467.13;5036358;28;20068;-73
2023/11/23 02:31:40;;;;;;;1.53;1.47;;;;;;;1.37;80.77;100463.09;5036104;28;20045;-73
2023/11/23 02:34:09;;;;;;;2.15;1.77;;;;;;;1.39;80.49;100465.72;5036094;28;20053;-73
2023/11/23 02:36:38;;;;;;;3.08;2.80;;;;;;;1.35;79.89;100465.56;5036000;28;20124;-73
2023/11/23 02:39:09;;;;;;;1.60;1.50;;;;;;;1.32;79.94;100455.34;5034748;28;20048;-73
2023/11/23 02:41:39;;;;;;;2.63;2.42;;;;;;;1.00;79.22;100405.19;5036263;28;20446;-73
2023/11/23 02:44:08;;;;;;;1.58;1.48;;;;;;;1.29;79.48;100452.69;5035861;28;20203;-73
2023/11/23 02:46:38;;;;;;;2.13;2.03;;;;;;;1.28;79.66;100453.47;5051229;28;20128;-73
2023/11/23 02:49:06;;;;;;;2.78;2.20;;;;;;;1.33;79.63;100451.19;5035109;28;20033;-73
2023/11/23 02:51:35;;;;;;;0.63;0.63;;;;;;;1.38;79.32;100448.88;5035963;28;20049;-73
2023/11/23 02:54:06;;;;;;;0.88;0.88;;;;;;;1.42;80.08;100436.53;5033509;28;20058;-73
2023/11/23 02:56:36;;;;;;;4.63;3.10;;;;;;;1.44;79.83;100434.09;5018783;28;20071;-73
2023/11/23 02:59:07;;;;;;;2.00;1.90;;;;;;;1.47;79.34;100436.72;5035906;28;20052;-73
2023/11/23 03:01:36;;;;;;;5.50;3.80;;;;;;;1.49;79.52;100442.72;5035511;28;20100;-73
2023/11/23 03:04:06;;;;;;;2.75;2.50;;;;;;;1.42;79.46;100438.19;5035523;28;20067;-73
2023/11/23 03:06:35;;;;;;;;;;;;;;;1.41;79.34;100436.47;5036160;28;20132;-73
2023/11/23 03:09:04;;;;;;;2.15;2.05;;;;;;;1.40;79.26;100422.16;5035952;28;20076;-73
2023/11/23 03:11:34;;;;;;;2.40;2.15;;;;;;;1.40;79.15;100417.13;5034404;28;20049;-75
2023/11/23 03:14:03;;;;;;;5.70;2.78;;;;;;;1.48;79.20;100421.75;5050769;28;20407;-75
2023/11/23 03:16:34;;;;;;;4.63;2.45;;;;;;;1.49;78.85;100420.94;5035399;28;20060;-75
2023/11/23 03:19:03;;;;;;;1.80;1.63;;;;;;;1.49;78.76;100428.47;5035358;28;20148;-75
2023/11/23 03:21:32;;;;;;;2.80;0.70;;;;;;;1.55;78.59;100423.75;5034030;28;20504;-75
2023/11/23 03:24:01;;;;;;;5.70;1.73;;;;;;;1.65;78.42;100425.03;5034493;28;20068;-76
2023/11/23 03:26:30;;;;;;;1.10;1.10;;;;;;;1.72;78.76;100429.56;5035614;28;20045;-75
2023/11/23 03:28:58;;;;;;;1.87;1.70;;;;;;;1.77;78.58;100430.63;5035307;28;20095;-76
2023/11/23 03:31:27;;;;;;;1.33;1.30;;;;;;;1.80;78.42;100431.63;5035278;28;20286;-76
2023/11/23 03:33:57;;;;;;;1.23;1.23;;;;;;;1.82;77.84;100424.16;5035325;28;20275;-73
2023/11/23 03:36:26;;;;;;;0.77;0.77;;;;;;;1.79;77.51;100431.56;5035399;28;20050;-73
2023/11/23 03:38:58;;;;;;;2.38;1.65;;;;;;;1.78;77.50;100423.16;5035073;28;20041;-73
2023/11/23 03:41:27;;;;;;;3.60;1.60;;;;;;;1.85;77.62;100422.63;5035168;28;20124;-73
2023/11/23 03:43:57;;;;;;;5.23;2.83;;;;;;;1.87;77.55;100418.53;5033885;28;20037;-73
2023/11/23 03:46:26;;;;;;;2.50;2.30;;;;;;;1.89;77.64;100421.13;5035195;28;20289;-73
2023/11/23 03:48:57;;;;;;;1.95;1.13;;;;;;;1.87;77.29;100422.72;5034839;28;20045;-73
2023/11/23 03:51:26;;;;;;;1.48;0.98;;;;;;;1.95;77.52;100426.44;5034750;28;20496;-74
2023/11/23 03:53:55;;;;;;;0.60;0.60;;;;;;;1.21;77.07;100285.56;5034459;28;20038;-74
2023/11/23 03:56:24;;;;;;;0.85;0.85;;;;;;;1.96;76.79;100418.09;5034702;28;20104;-74
2023/11/23 03:58:53;;;;;;;1.02;1.02;;;;;;;1.84;77.25;100397.41;5034829;28;20038;-74
2023/11/23 04:01:23;;;;;;;1.10;1.00;;;;;;;1.94;76.50;100412.13;5034571;28;20042;-74
2023/11/23 04:03:52;;;;;;;2.17;2.00;;;;;;;2.05;76.45;100421.03;5034486;28;20049;-74
2023/11/23 04:06:22;;;;;;;1.10;1.10;;;;;;;2.03;76.41;100435.19;5034248;28;20430;-73
2023/11/23 04:08:52;;;;;;;1.05;1.05;;;;;;;1.95;76.40;100411.31;5034363;28;20041;-74
2023/11/23 04:11:23;;;;;;;0.70;0.70;;;;;;;2.07;76.88;100432.00;5034368;28;20069;-74
2023/11/23 04:13:52;;;;;;;1.88;1.77;;;;;;;1.98;76.86;100436.66;5034505;28;20503;-74
2023/11/23 04:16:21;;;;;;;0.40;0.40;;;;;;;2.02;76.72;100441.00;5035083;28;20045;-74
2023/11/23 04:18:49;;;;;;;1.73;1.52;;;;;;;2.06;76.27;100450.44;5034504;28;20432;-74
2023/11/23 04:21:18;;;;;;;1.08;1.00;;;;;;;2.09;76.73;100440.50;5034147;28;20041;-74
2023/11/23 04:23:48;;;;;;;1.00;1.00;;;;;;;2.13;77.21;100441.50;5034063;28;20492;-74
2023/11/23 04:26:17;;;;;;;1.65;1.55;;;;;;;2.13;77.43;100447.41;5034232;28;20048;-74
2023/11/23 04:28:48;;;;;;;0.60;0.60;;;;;;;2.07;76.46;100436.19;5034172;28;20393;-74
2023/11/23 04:31:17;;;;;;;1.15;1.05;;;;;;;2.05;77.56;100423.53;5034410;28;20049;-74
2023/11/23 04:33:46;;;;;;;;;;;;;;;2.09;76.92;100424.56;5017243;28;20045;-74
2023/11/23 04:36:15;;;;;;;0.60;0.60;;;;;;;2.10;77.51;100422.09;5034279;28;20007;-74
2023/11/23 04:38:44;;;;;;;1.65;1.55;;;;;;;2.09;76.99;100420.34;5033904;28;20077;-74
2023/11/23 04:41:14;;;;;;;0.82;0.82;;;;;;;2.04;77.67;100416.75;5032712;28;20048;-74
2023/11/23 04:43:43;;;;;;;0.68;0.65;;;;;;;2.00;78.08;100414.91;5034456;28;20037;-78
2023/11/23 04:46:12;;;;;;;1.05;1.05;;;;;;;1.61;78.06;100353.59;5035430;28;20551;-77
2023/11/23 04:48:41;;;;;;;1.95;1.85;;;;;;;1.95;77.51;100418.88;5035468;28;20060;-78
2023/11/23 04:51:10;;;;;;;1.27;1.20;;;;;;;1.92;77.97;100414.56;5036161;28;20077;-77
2023/11/23 04:53:39;;;;;;;1.85;1.52;;;;;;;1.71;78.05;100380.88;5037276;28;20083;-74
2023/11/23 04:56:08;;;;;;;1.27;1.20;;;;;;;1.86;77.80;100405.88;5032521;28;20132;-73
2023/11/23 04:58:39;;;;;;;0.82;0.82;;;;;;;1.81;78.96;100399.78;5033914;28;20200;-74
2023/11/23 05:01:08;;;;;;;2.38;1.35;;;;;;;1.80;79.21;100400.59;5034065;28;20076;-74
2023/11/23 05:03:37;;;;;;;;;;;;;;;1.80;79.04;100400.59;5033980;28;20041;-75
2023/11/23 05:06:08;;;;;;;0.50;0.50;;;;;;;1.74;78.99;100400.28;5033591;28;19979;-74
2023/11/23 05:08:39;;;;;;;2.17;1.95;;;;;;;1.37;79.41;100336.53;5033776;28;20287;-75
2023/11/23 05:11:08;;;;;;;1.25;1.15;;;;;;;1.75;79.43;100407.91;5033791;28;20049;-75
2023/11/23 05:13:38;;;;;;;1.58;1.33;;;;;;;1.62;79.33;100377.09;5033490;28;20048;-75
2023/11/23 05:16:09;;;;;;;5.75;2.83;;;;;;;1.87;78.92;100412.66;5033744;28;20046;-75
2023/11/23 05:18:38;;;;;;;2.92;2.70;;;;;;;1.88;79.84;100414.38;5038739;28;20046;-75
2023/11/23 05:21:11;;;;;;;2.50;1.38;;;;;;;1.91;79.09;100414.50;5040069;28;20128;-75
2023/11/23 05:23:40;;;;;;;0.82;0.82;;;;;;;1.89;79.52;100406.03;5040583;28;20487;-75
2023/11/23 05:26:09;;;;;;;1.93;1.83;;;;;;;1.82;79.33;100393.97;5039873;28;20048;-75
2023/11/23 05:28:39;;;;;;;1.20;1.13;;;;;;;1.96;79.38;100405.50;5038965;28;20285;-75
2023/11/23 05:31:09;;;;;;;5.00;2.35;;;;;;;2.04;79.31;100401.66;5040274;28;20539;-75
2023/11/23 05:33:38;;;;;;;1.40;1.30;;;;;;;2.05;79.32;100403.41;5039912;28;20037;-74
2023/11/23 05:36:09;;;;;;;1.95;1.85;;;;;;;2.06;80.31;100399.22;5040352;28;20111;-78
2023/11/23 05:38:39;;;;;;;3.13;2.92;;;;;;;2.06;79.77;100410.16;5040242;28;20044;-78
2023/11/23 05:41:07;;;;;;;4.13;2.13;;;;;;;2.09;79.93;100409.44;5040052;28;20045;-78
2023/11/23 05:43:40;;;;;;;1.33;1.23;;;;;;;2.05;80.04;100405.91;5040422;28;20072;-78
2023/11/23 05:46:10;;;;;;;1.60;1.50;;;;;;;1.97;79.89;100409.72;5039787;28;20049;-76
2023/11/23 05:48:42;;;;;;;2.70;2.50;;;;;;;1.96;80.52;100400.47;5039831;28;20050;-78
2023/11/23 05:51:11;;;;;;;1.05;1.05;;;;;;;2.00;80.10;100385.59;5039679;28;20045;-78
2023/11/23 05:53:41;;;;;;;1.95;1.85;;;;;;;1.99;79.61;100393.06;5039934;28;20042;-78
2023/11/23 05:56:11;;;;;;;2.95;1.60;;;;;;;2.02;79.81;100394.06;5040050;28;20488;-79
2023/11/23 05:58:41;;;;;;;2.40;1.50;;;;;;;2.07;80.30;100396.78;5039894;28;20068;-79
2023/11/23 06:01:10;;;;;;;1.83;1.70;;;;;;;2.08;80.55;100393.47;5039705;28;20057;-78
2023/11/23 06:03:41;;;;;;;2.60;2.13;;;;;;;1.91;79.85;100359.16;5039612;28;20066;-78
2023/11/23 06:06:19;;;;;;;0.63;0.63;;;;;;;2.03;80.18;100384.84;5040381;28;20587;-79
2023/11/23 06:13:07;;;;;;;1.53;1.43;;;;;;;2.08;80.81;100402.69;5039912;28;20395;-78
2023/11/23 06:15:38;;;;;;;2.20;2.05;;;;;;;2.06;80.17;100414.34;5039595;28;20052;-78
2023/11/23 06:18:07;;;;;;;1.80;1.70;;;;;;;0.92;79.71;100210.47;5039533;28;20049;-75
2023/11/23 06:21:37;;;;;;;0.90;0.90;;;;;;;2.00;80.03;100405.72;5039498;28;20052;-75
2023/11/23 06:24:09;;;;;;;5.18;4.05;;;;;;;1.92;80.81;100401.16;5039605;28;20041;-79
2023/11/23 06:27:18;;;;;;;;;;;;;;;1.78;79.94;100403.00;5037525;28;20423;-78
2023/11/23 06:29:47;;;;;;;0.95;0.93;;;;;;;1.69;81.02;100409.28;5037458;28;19952;-79
2023/11/23 06:32:19;;;;;;;1.98;1.73;;;;;;;1.67;80.89;100403.31;5036254;28;20044;-79
2023/11/23 06:34:48;;;;;;;6.03;2.47;;;;;;;1.72;81.13;100401.88;5036337;28;20053;-77
2023/11/23 06:37:17;;;;;;;1.58;1.48;;;;;;;1.76;81.12;100403.75;5036161;28;20116;-75
2023/11/23 06:39:46;;;;;;;1.05;1.05;;;;;;;1.71;81.19;100400.16;5036171;28;20069;-75
2023/11/23 06:42:15;;;;;;;1.73;1.63;;;;;;;1.53;81.09;100377.56;5036058;28;20558;-76
2023/11/23 06:44:46;;;;;;;1.88;1.55;;;;;;;1.26;81.16;100339.41;5036818;28;20499;-79
2023/11/23 06:47:17;;;;;;;2.05;1.95;;;;;;;1.53;81.78;100386.75;5035127;28;20041;-78
2023/11/23 06:49:46;;;;;;;6.85;3.42;;;;;;;1.54;82.42;100375.88;5036038;28;20149;-76
2023/11/23 06:52:15;;;;;;;8.57;3.67;;;;;;;1.59;82.52;100375.31;5036458;28;20053;-77
2023/11/23 06:54:44;;;;;;;2.35;1.88;;;;;;;1.61;81.80;100387.97;5046583;28;20167;-77
2023/11/23 06:57:13;;;;;;;4.13;2.58;;;;;;;1.16;81.99;100294.53;5046079;28;20041;-76
2023/11/23 06:59:42;;;;;;;3.65;3.35;;;;;;;1.68;81.78;100384.94;5054972;28;20044;-76
2023/11/23 07:02:12;;;;;;;1.48;1.38;;;;;;;1.70;82.03;100394.28;5059502;28;20072;-76
2023/11/23 07:04:43;;;;;;;1.92;1.83;;;;;;;1.57;82.07;100365.97;5055634;28;20033;-76
2023/11/23 07:07:12;;;;;;;2.65;2.45;;;;;;;1.34;82.31;100312.13;5058630;28;20071;-77
2023/11/23 07:09:41;;;;;;;3.00;1.48;;;;;;;1.71;82.58;100375.00;5058990;28;20483;-79
2023/11/23 07:12:11;;;;;;;2.13;1.65;;;;;;;1.31;82.27;100317.00;5055848;28;20045;-77
2023/11/23 07:14:42;;;;;;;2.10;1.35;;;;;;;1.74;82.19;100382.69;5055546;28;20041;-78
2023/11/23 07:17:11;;;;;;;1.55;1.45;;;;;;;1.72;82.56;100381.75;5055955;28;20037;-76
2023/11/23 07:19:40;;;;;;;3.95;3.58;;;;;;;1.70;82.90;100378.31;5053559;28;20037;-77
2023/11/23 07:22:11;;;;;;;2.38;2.17;;;;;;;1.70;83.06;100368.25;5057019;28;20041;-79
2023/11/23 07:24:40;;;;;;;1.40;1.30;;;;;;;1.68;82.60;100367.34;5054377;28;20398;-76
2023/11/23 07:27:09;;;;;;;2.00;1.67;;;;;;;1.68;82.78;100359.78;5055078;28;20045;-77
2023/11/23 07:29:38;;;;;;;4.40;3.90;;;;;;;1.70;82.54;100365.75;5038223;28;20037;-77
2023/11/23 07:32:08;;;;;;;2.00;1.85;;;;;;;1.69;83.31;100366.50;5050521;28;20107;-77
2023/11/23 07:34:38;;;;;;;;;;;;;;;1.71;83.06;100359.91;5035836;28;20441;-76
2023/11/23 07:37:10;;;;;;;1.65;1.55;;;;;;;1.52;82.77;100327.16;5033894;28;20354;-76
2023/11/23 07:39:44;;;;;;;4.00;3.70;;;;;;;1.23;82.47;100268.88;5034947;28;20048;-77
2023/11/23 07:42:15;;;;;;;3.35;2.90;;;;;;;1.78;83.26;100350.19;5034616;28;20141;-77
2023/11/23 07:44:46;;;;;;;3.20;3.00;;;;;;;1.69;83.12;100336.31;5043650;28;20045;-77
2023/11/23 07:47:16;;;;;;;2.13;1.83;;;;;;;1.93;83.56;100372.66;5034541;28;20045;-77
2023/11/23 07:49:45;;;;;;;;;;;;;;;2.00;82.60;100367.09;5035265;28;20492;-77
2023/11/23 07:52:14;;;;;;;2.22;2.13;;;;;;;2.07;83.41;100376.63;5034600;28;19925;-77
2023/11/23 07:54:45;;;;;;;1.58;1.48;;;;;;;2.18;82.60;100372.94;5034801;28;20438;-78
2023/11/23 07:57:14;;;;;;;2.53;2.30;;;;;;;2.21;82.60;100378.09;5035134;28;20052;-76
2023/11/23 07:59:44;;;;;;;5.40;4.00;;;;;;;2.28;83.24;100362.44;5034502;28;20042;-77
2023/11/23 08:02:13;;;;;;;2.40;2.08;;;;;;;2.29;82.90;100344.03;5034830;28;20049;-78
2023/11/23 08:04:42;;;;;;;2.58;2.20;;;;;;;2.35;82.72;100346.81;5041987;28;20488;-77
2023/11/23 08:07:11;;;;;;;2.63;2.42;;;;;;;2.17;82.03;100322.50;5054535;28;20033;-77
2023/11/23 08:09:40;;;;;;;3.20;2.22;;;;;;;2.32;81.52;100343.31;5054496;28;20517;-77
2023/11/23 08:12:11;;;;;;;6.82;3.28;;;;;;;2.39;82.24;100347.81;5054274;28;20045;-76
2023/11/23 08:14:40;;;;;;;1.52;1.45;;;;;;;2.25;81.95;100322.06;5053360;28;20047;-76
2023/11/23 08:17:11;;;;;;;2.40;2.20;;;;;;;2.22;81.75;100332.00;5054157;28;20076;-76
2023/11/23 08:19:40;;;;;;;3.53;3.00;;;;;;;2.22;81.90;100336.16;5053724;28;20128;-77
2023/11/23 08:22:12;;;;;;;2.97;2.67;;;;;;;1.06;81.50;100153.28;5054163;28;20490;-76
2023/11/23 08:24:41;;;;;;;3.28;2.45;;;;;;;2.03;81.38;100324.44;5035387;28;20037;-76
2023/11/23 08:27:12;;;;;;;2.92;2.25;;;;;;;2.07;82.15;100340.53;5054030;28;20132;-75
2023/11/23 08:29:41;;;;;;;4.90;3.53;;;;;;;2.09;82.26;100344.00;5053112;28;20135;-75
2023/11/23 08:32:12;;;;;;;2.60;2.40;;;;;;;1.98;82.26;100313.31;5053900;28;20052;-76
2023/11/23 08:34:41;;;;;;;4.47;2.90;;;;;;;2.08;81.46;100333.06;5052959;28;20041;-76
2023/11/23 08:37:12;;;;;;;5.65;2.00;;;;;;;1.92;81.93;100303.00;5053898;28;20057;-76
2023/11/23 08:39:41;;;;;;;1.92;1.83;;;;;;;1.98;82.50;100321.72;5053725;28;20120;-76
2023/11/23 08:42:12;;;;;;;4.32;3.92;;;;;;;2.04;82.11;100311.03;5051067;28;20046;-76
2023/11/23 08:44:41;;;;;;;1.63;1.50;;;;;;;2.17;81.92;100323.38;5034431;28;20068;-76
2023/11/23 08:47:10;;;;;;;3.70;2.70;;;;;;;2.27;82.45;100317.94;5034151;28;20502;-77
2023/11/23 08:49:39;;;;;;;;;;;;;;;2.30;82.20;100313.03;5034429;28;20079;-77
2023/11/23 08:52:08;;;;;;;1.67;1.58;;;;;;;2.31;82.79;100307.19;5034170;28;19929;-77
2023/11/23 08:54:37;;;;;;;1.05;0.95;;;;;;;2.32;82.28;100316.47;5053305;28;20044;-75
2023/11/23 08:57:06;;;;;;;3.73;2.13;;;;;;;2.40;82.42;100322.69;5053998;28;20545;-76
2023/11/23 08:59:37;;;;;;;1.10;1.02;;;;;;;2.54;83.00;100320.75;5052169;28;20282;-76
2023/11/23 09:02:07;;;;;;;2.05;1.83;;;;;;;2.71;82.68;100325.66;5052884;28;20048;-76
2023/11/23 09:04:48;;;;;;;2.38;1.77;;;;;;;2.78;82.27;100328.44;5053479;28;20049;-76
2023/11/23 09:07:20;;;;;;;0.95;0.93;;;;;;;2.72;81.56;100317.31;5052362;28;20056;-75
2023/11/23 09:09:49;;;;;;;6.05;2.63;;;;;;;2.65;81.62;100301.88;5050428;28;20049;-76
2023/11/23 09:12:18;;;;;;;2.80;2.60;;;;;;;2.72;81.70;100309.75;5053322;28;20403;-76
2023/11/23 09:14:53;;;;;;;1.88;1.77;;;;;;;2.70;82.20;100302.94;5039847;28;20095;-76
2023/11/23 09:17:22;;;;;;;4.72;2.95;;;;;;;2.70;82.57;100308.84;5052411;28;20159;-75
2023/11/23 09:19:50;;;;;;;2.33;2.13;;;;;;;2.76;82.08;100294.78;5032426;28;20404;-76
2023/11/23 09:22:19;;;;;;;1.90;1.80;;;;;;;2.66;82.00;100243.97;5047263;28;20029;-76
2023/11/23 09:24:48;;;;;;;0.75;0.75;;;;;;;3.15;82.55;100296.31;5048883;28;20443;-76
2023/11/23 09:27:17;;;;;;;0.52;0.52;;;;;;;3.33;81.61;100289.47;5037187;28;20376;-76
2023/11/23 09:29:48;;;;;;;2.28;2.08;;;;;;;3.45;81.75;100297.47;5032046;28;20491;-77
2023/11/23 09:32:19;;;;;;;3.25;2.95;;;;;;;3.64;81.71;100289.78;5045751;28;20038;-78
2023/11/23 09:34:48;;;;;;;2.35;1.73;;;;;;;3.86;81.17;100286.38;5033615;28;20116;-77
2023/11/23 09:37:17;;;;;;;2.28;2.10;;;;;;;3.90;80.02;100286.53;5033217;28;20132;-77
2023/11/23 09:39:47;;;;;;;3.03;2.83;;;;;;;4.04;79.83;100272.72;5041010;28;20045;-76
2023/11/23 09:42:16;;;;;;;;;;;;;;;4.22;80.08;100269.97;5053098;28;20510;-75
2023/11/23 09:44:54;;;;;;;5.07;2.20;;;;;;;4.32;79.58;100261.03;5053224;28;19936;-75
2023/11/23 09:47:31;;;;;;;2.13;1.80;;;;;;;4.59;79.07;100274.56;5053519;28;20044;-75
2023/11/23 09:50:03;;;;;;;2.10;1.95;;;;;;;4.79;78.13;100268.47;5050600;28;20476;-75
2023/11/23 09:52:33;;;;;;;3.03;2.53;;;;;;;4.87;77.60;100253.53;5052927;28;20095;-75
2023/11/23 09:55:04;;;;;;;;;;;;;;;4.94;77.13;100241.16;5054693;28;20048;-75
2023/11/23 09:57:32;;;;;;;7.03;2.05;;;;;;;4.89;76.50;100230.03;5054766;28;19921;-75
2023/11/23 10:00:01;;;;;;;4.70;1.57;;;;;;;4.66;75.76;100218.31;5033464;28;20495;-75
2023/11/23 10:02:36;;;;;;;2.90;2.60;;;;;;;4.54;75.91;100211.22;5033402;28;20475;-76
2023/11/23 10:05:08;;;;;;;0.70;0.68;;;;;;;4.40;76.01;100209.94;5035974;28;20053;-74
2023/11/23 10:07:38;;;;;;;3.22;1.58;;;;;;;4.30;76.68;100176.72;5035685;28;20095;-75
2023/11/23 10:10:08;;;;;;;3.63;2.13;;;;;;;4.50;76.87;100201.84;5037093;28;20049;-75
2023/11/23 10:12:37;;;;;;;2.47;2.13;;;;;;;4.52;77.27;100190.09;5036502;28;20045;-76
2023/11/23 10:15:07;;;;;;;1.02;1.00;;;;;;;4.78;77.56;100179.91;5027423;28;20045;-77
2023/11/23 10:17:39;;;;;;;1.52;1.42;;;;;;;5.02;77.23;100178.13;5056897;28;20049;-75
2023/11/23 10:20:10;;;;;;;5.75;3.17;;;;;;;5.04;76.73;100162.16;5055621;28;20113;-75
2023/11/23 10:22:44;;;;;;;1.40;1.30;;;;;;;4.83;76.42;100151.44;5054594;28;20449;-75
2023/11/23 10:25:25;;;;;;;1.67;1.58;;;;;;;4.93;76.84;100158.47;5036184;28;20037;-75
2023/11/23 10:27:58;;;;;;;5.70;2.03;;;;;;;5.03;76.95;100160.47;5057124;28;20120;-77
2023/11/23 10:30:27;;;;;;;1.00;1.00;;;;;;;5.16;76.52;100147.34;5057403;28;20491;-78
2023/11/23 10:32:58;;;;;;;1.50;1.40;;;;;;;5.45;75.69;100129.59;5057374;28;20026;-76
2023/11/23 10:35:35;;;;;;;1.95;1.75;;;;;;;5.37;75.37;100117.56;5056547;28;20083;-76
2023/11/23 10:38:05;;;;;;;3.63;2.95;;;;;;;5.66;74.97;100117.50;5036589;28;20052;-75
2023/11/23 10:40:34;;;;;;;1.58;1.30;;;;;;;5.69;74.67;100120.06;5051769;28;20099;-76
2023/11/23 10:43:03;;;;;;;1.85;1.70;;;;;;;5.67;74.18;100116.66;5037329;28;20038;-76
2023/11/23 10:45:32;;;;;;;2.40;1.67;;;;;;;5.69;74.26;100109.94;5054525;28;20041;-77
2023/11/23 10:48:06;;;;;;;1.00;1.00;;;;;;;5.69;74.36;100104.88;5047290;28;20037;-75
2023/11/23 10:50:36;;;;;;;1.52;1.42;;;;;;;4.51;73.86;99912.06;5053857;28;20051;-75
2023/11/23 10:53:04;;;;;;;2.05;1.90;;;;;;;5.61;74.08;100081.06;5056985;28;20380;-75
2023/11/23 10:55:34;;;;;;;2.20;2.03;;;;;;;5.64;74.62;100078.63;5054881;28;20049;-76
2023/11/23 10:58:08;;;;;;;0.90;0.90;;;;;;;5.80;74.55;100078.19;5055072;28;20309;-74
2023/11/23 11:00:39;;;;;;;1.38;1.27;;;;;;;5.88;74.30;100071.63;5055572;28;20040;-75
2023/11/23 11:03:12;;;;;;;1.77;1.35;;;;;;;5.82;73.99;100061.34;5050252;28;20437;-75
2023/11/23 11:05:45;;;;;;;2.33;1.90;;;;;;;5.97;73.25;100084.53;5039901;28;20073;-74
2023/11/23 11:08:20;;;;;;;1.50;1.40;;;;;;;6.04;73.15;100083.88;5041048;28;20060;-75
2023/11/23 11:10:51;;;;;;;1.40;1.30;;;;;;;6.21;73.10;100082.59;5057136;28;20080;-77
2023/11/23 11:13:22;;;;;;;2.03;1.92;;;;;;;6.35;72.35;100073.63;5053077;28;20049;-76
2023/11/23 11:15:53;;;;;;;2.17;2.00;;;;;;;6.48;72.42;100073.03;5036325;28;20050;-75
2023/11/23 11:18:24;;;;;;;1.95;1.85;;;;;;;6.55;71.96;100062.22;5036774;28;20056;-76
2023/11/23 11:21:09;;;;;;;1.42;1.33;;;;;;;6.47;71.86;100035.84;5037194;28;20408;-77
2023/11/23 11:23:43;;;;;;;2.10;1.70;;;;;;;6.41;71.01;100034.84;5044953;28;20041;-76
2023/11/23 11:26:14;;;;;;;1.50;1.40;;;;;;;6.32;71.95;100038.06;5056873;28;20049;-77
2023/11/23 11:28:44;;;;;;;1.30;1.20;;;;;;;6.28;72.07;100033.75;5056985;28;20136;-77
2023/11/23 11:31:14;;;;;;;1.75;1.63;;;;;;;6.29;72.07;100030.38;5055375;28;20487;-74
2023/11/23 11:33:51;;;;;;;1.85;1.75;;;;;;;6.30;72.38;100021.09;5054237;28;20045;-75
2023/11/23 11:36:20;;;;;;;2.35;2.15;;;;;;;6.29;72.61;100019.38;5054177;28;20048;-76
2023/11/23 11:38:55;;;;;;;1.47;1.37;;;;;;;6.32;72.82;100020.31;5042039;28;20050;-76
2023/11/23 11:41:28;;;;;;;4.40;3.03;;;;;;;6.09;73.08;100011.38;5035039;28;20353;-74
2023/11/23 11:43:59;;;;;;;3.30;2.42;;;;;;;5.96;73.51;100024.56;5045025;28;20033;-75
2023/11/23 11:46:29;;;;;;;1.08;1.02;;;;;;;6.00;73.51;100006.06;5050195;28;20029;-77
2023/11/23 11:48:59;;;;;;;1.67;1.52;;;;;;;6.12;74.00;100001.28;5053026;28;20059;-77
2023/11/23 11:51:29;;;;;;;2.05;1.85;;;;;;;6.21;73.62;99988.81;5049082;28;20522;-76
2023/11/23 11:53:59;;;;;;;2.10;1.80;;;;;;;6.11;74.27;99959.03;5055359;28;20114;-77
2023/11/23 11:56:28;;;;;;;1.70;1.60;;;;;;;5.94;74.58;99961.22;5055475;28;20076;-74
2023/11/23 11:58:58;;;;;;;4.28;3.40;;;;;;;5.95;75.37;99982.34;5053631;28;20049;-74
2023/11/23 12:01:28;;;;;;;8.18;1.85;;;;;;;5.94;75.72;99975.53;5052777;28;20060;-76
2023/11/23 12:03:57;;;;;;;3.42;2.67;;;;;;;5.99;75.93;99963.84;5051401;28;20403;-76